Time;durP1;ratioP1;P1;durP2;ratioP2;P2;SDS_P1;SDS_P2;PMS_P1;PMS_P2;Temp;Humidity;BMP_temperature;BMP_pressure;BME280_temperature;BME280_humidity;BME280_pressure;Samples;Min_cycle;Max_cycle;Signal;HPM_P1;HPM_P2
2021/03/07 00:00:53;;;;;;;5.47;2.60;;;;;;;2.80;77.35;102134.18;123786;1105;65402;-77
2021/03/07 00:03:20;;;;;;;8.48;3.42;;;;;;;2.79;78.57;102135.13;123598;1105;65238;-77
2021/03/07 00:05:46;;;;;;;8.70;3.00;;;;;;;2.76;78.21;102130.08;123429;1105;65405;-76
2021/03/07 00:08:15;;;;;;;7.27;3.50;;;;;;;2.74;78.12;102129.33;123406;1105;65687;-78
2021/03/07 00:10:41;;;;;;;7.50;3.50;;;;;;;2.76;78.30;102129.22;123550;1104;64939;-78
2021/03/07 00:13:11;;;;;;;7.07;3.63;;;;;;;2.77;78.14;102123.05;123854;1103;64985;-78
2021/03/07 00:15:37;;;;;;;7.53;3.73;;;;;;;2.76;77.85;102118.73;124006;1105;64920;-77
2021/03/07 00:18:03;;;;;;;12.00;3.90;;;;;;;2.78;78.67;102117.70;123317;1105;64991;-79
2021/03/07 00:20:29;;;;;;;6.63;2.60;;;;;;;2.77;78.16;102117.81;123415;1105;65462;-77
2021/03/07 00:22:56;;;;;;;7.80;2.80;;;;;;;2.78;78.41;102117.70;123378;1105;65029;-77
2021/03/07 00:25:24;;;;;;;5.90;2.83;;;;;;;2.78;78.41;102114.25;123406;1104;64894;-77
2021/03/07 00:27:50;;;;;;;2.63;1.70;;;;;;;2.78;77.56;102109.84;123754;1105;64969;-78
2021/03/07 00:30:18;;;;;;;4.13;2.43;;;;;;;2.79;77.84;102108.09;123412;1105;64790;-77
2021/03/07 00:32:45;;;;;;;6.60;2.60;;;;;;;2.77;77.52;102102.93;124260;1104;64910;-78
2021/03/07 00:35:12;;;;;;;3.17;1.87;;;;;;;2.78;77.81;102099.36;124287;1105;64978;-78
2021/03/07 00:37:38;;;;;;;4.33;2.10;;;;;;;2.78;77.09;102095.91;123415;1105;64939;-76
2021/03/07 00:40:06;;;;;;;4.83;2.63;;;;;;;2.80;77.75;102105.36;123529;1105;64963;-76
2021/03/07 00:42:32;;;;;;;6.25;2.75;;;;;;;2.81;77.03;102098.36;123364;1105;64997;-77
2021/03/07 00:44:58;;;;;;;6.33;2.50;;;;;;;2.84;77.55;102096.38;123400;1105;64978;-78
2021/03/07 00:47:24;;;;;;;5.80;2.53;;;;;;;2.85;77.00;102095.47;123340;1105;64917;-77
2021/03/07 00:49:51;;;;;;;7.47;2.30;;;;;;;2.88;77.26;102098.84;123428;1105;64969;-77
2021/03/07 00:52:17;;;;;;;6.90;2.30;;;;;;;2.88;77.60;102096.22;123430;1104;65036;-78
2021/03/07 00:54:43;;;;;;;5.87;1.90;;;;;;;2.87;75.83;102103.25;123437;1105;64924;-78
2021/03/07 00:57:09;;;;;;;4.50;1.47;;;;;;;2.81;76.03;102096.58;123437;1105;65682;-78
2021/03/07 00:59:36;;;;;;;2.30;1.50;;;;;;;2.81;76.39;102086.09;123426;1105;65004;-78
2021/03/07 01:02:02;;;;;;;6.17;1.73;;;;;;;2.81;76.40;102080.02;123383;1105;65218;-77
2021/03/07 01:04:28;;;;;;;3.40;1.80;;;;;;;2.81;76.25;102077.40;124858;1100;64940;-78
2021/03/07 01:06:55;;;;;;;4.28;1.62;;;;;;;2.79;75.93;102068.78;123469;1102;65001;-78
2021/03/07 01:09:21;;;;;;;5.17;2.00;;;;;;;2.76;75.11;102072.43;123508;1105;64920;-78
2021/03/07 01:12:02;;;;;;;3.27;1.27;;;;;;;2.74;75.74;102076.92;123369;1105;64918;-78
2021/03/07 01:14:28;;;;;;;6.70;1.80;;;;;;;2.71;75.43;102084.94;123670;1102;64915;-78
2021/03/07 01:16:54;;;;;;;3.33;1.30;;;;;;;2.68;75.02;102073.78;123765;1103;64971;-78
2021/03/07 01:19:20;;;;;;;3.67;1.60;;;;;;;2.62;75.99;102070.61;123392;1105;64899;-76
2021/03/07 01:21:47;;;;;;;6.03;1.60;;;;;;;2.58;76.01;102063.85;123370;1105;65017;-80
2021/03/07 01:24:13;;;;;;;6.50;2.20;;;;;;;2.56;75.80;102068.34;123600;1105;65676;-76
2021/03/07 01:26:40;;;;;;;4.87;1.80;;;;;;;2.51;75.33;102061.67;123386;1104;64923;-76
2021/03/07 01:29:06;;;;;;;3.93;1.70;;;;;;;2.44;75.18;102064.67;123661;1102;64914;-77
2021/03/07 01:31:32;;;;;;;10.53;2.37;;;;;;;2.40;76.24;102065.77;123646;1105;64803;-79
2021/03/07 01:33:59;;;;;;;2.23;0.97;;;;;;;2.35;76.32;102062.56;123415;1102;64991;-77
2021/03/07 01:36:25;;;;;;;3.93;1.50;;;;;;;2.31;75.73;102058.42;123555;1105;64940;-78
2021/03/07 01:38:55;;;;;;;3.53;1.67;;;;;;;2.26;76.44;102050.00;123579;1102;66318;-77
2021/03/07 01:41:25;;;;;;;2.95;1.85;;;;;;;2.24;75.68;102051.86;123497;1105;64933;-77
2021/03/07 01:43:51;;;;;;;14.05;2.35;;;;;;;2.22;76.13;102044.09;123505;1105;64993;-78
2021/03/07 01:46:17;;;;;;;4.40;1.70;;;;;;;2.20;76.48;102051.18;123413;1105;64745;-78
2021/03/07 01:48:44;;;;;;;3.85;1.70;;;;;;;2.17;76.13;102046.13;123406;1106;64968;-78
2021/03/07 01:51:13;;;;;;;3.07;1.40;;;;;;;2.13;76.62;102039.38;123450;1105;64901;-76
2021/03/07 01:53:41;;;;;;;3.67;1.40;;;;;;;2.10;76.89;102036.92;123601;1105;65014;-78
2021/03/07 01:56:09;;;;;;;2.53;1.33;;;;;;;2.04;76.86;102038.13;123484;1104;65369;-78
2021/03/07 01:58:37;;;;;;;3.35;1.40;;;;;;;2.01;77.17;102027.81;123495;1105;65911;-77
2021/03/07 02:01:05;;;;;;;5.17;1.90;;;;;;;1.99;77.15;102024.44;123427;1105;65077;-75
2021/03/07 02:03:32;;;;;;;5.50;2.25;;;;;;;1.98;77.32;102028.00;123604;1102;64959;-78
2021/03/07 02:06:13;;;;;;;8.93;2.70;;;;;;;1.97;77.53;102021.07;123501;1105;64969;-78
2021/03/07 02:08:40;;;;;;;7.77;1.80;;;;;;;1.97;77.69;102017.61;123363;1105;64992;-78
2021/03/07 02:11:06;;;;;;;6.80;2.55;;;;;;;1.94;77.54;102018.64;123293;1105;65196;-77
2021/03/07 02:13:37;;;;;;;8.83;2.57;;;;;;;1.92;78.18;102012.64;123429;1106;64959;-79
2021/03/07 02:16:07;;;;;;;7.73;3.00;;;;;;;1.89;78.52;102006.73;123493;1102;64962;-78
2021/03/07 02:18:36;;;;;;;6.80;2.67;;;;;;;1.86;78.89;102007.75;123470;1105;64975;-80
2021/03/07 02:21:08;;;;;;;8.40;2.30;;;;;;;1.86;79.58;102007.75;123459;1103;65742;-77
2021/03/07 02:23:47;;;;;;;6.47;2.47;;;;;;;1.84;80.56;101999.14;123506;1103;64913;-79
2021/03/07 02:26:14;;;;;;;5.70;3.00;;;;;;;1.84;79.65;102005.22;123389;1103;65370;-78
2021/03/07 02:28:41;;;;;;;5.17;1.57;;;;;;;1.84;79.36;102004.38;124260;1105;64981;-79
2021/03/07 02:31:07;;;;;;;6.23;2.27;;;;;;;1.83;78.98;102003.54;123345;1102;64931;-77
2021/03/07 02:33:40;;;;;;;5.15;2.47;;;;;;;1.83;77.85;102007.94;123626;1105;64796;-78
2021/03/07 02:36:15;;;;;;;3.93;1.93;;;;;;;1.82;77.20;101998.39;123730;1105;64997;-78
2021/03/07 02:38:44;;;;;;;4.43;2.30;;;;;;;1.82;77.06;102001.00;123572;1105;64991;-78
2021/03/07 02:41:12;;;;;;;3.87;1.90;;;;;;;1.83;76.53;101997.47;123368;1105;64918;-77
2021/03/07 02:43:42;;;;;;;6.90;2.23;;;;;;;1.84;76.91;101993.91;123461;1105;64966;-77
2021/03/07 02:46:15;;;;;;;4.37;1.40;;;;;;;1.81;76.74;101988.87;123504;1105;64962;-77
2021/03/07 02:48:46;;;;;;;4.77;1.50;;;;;;;1.80;76.51;101987.16;123351;1106;64958;-77
2021/03/07 02:51:13;;;;;;;4.13;1.67;;;;;;;1.77;76.73;101982.12;123390;1103;64940;-78
2021/03/07 02:53:41;;;;;;;4.60;1.50;;;;;;;1.76;76.22;101986.48;123669;1103;64861;-79
2021/03/07 02:56:15;;;;;;;2.80;1.30;;;;;;;1.74;75.68;101975.29;123402;1102;65021;-78
2021/03/07 02:58:43;;;;;;;;;;;;;;;1.72;75.90;101971.91;123535;1102;62872;-78
2021/03/07 03:01:16;;;;;;;4.65;1.70;;;;;;;1.69;75.84;101969.45;123764;1105;64863;-77
2021/03/07 03:03:44;;;;;;;3.63;0.93;;;;;;;1.66;75.76;101964.41;123657;1105;64940;-77
2021/03/07 03:06:14;;;;;;;2.73;1.33;;;;;;;1.63;75.83;101957.55;123652;1105;64968;-78
2021/03/07 03:08:45;;;;;;;2.30;1.03;;;;;;;1.63;75.30;101959.33;123645;1105;64857;-77
2021/03/07 03:11:12;;;;;;;3.17;1.27;;;;;;;1.61;75.67;101954.17;123455;1102;64969;-80
2021/03/07 03:13:39;;;;;;;4.17;1.10;;;;;;;1.59;75.34;101953.45;123349;1105;65049;-78
2021/03/07 03:16:06;;;;;;;3.05;1.60;;;;;;;1.57;75.29;101946.59;123541;1105;65087;-78
2021/03/07 03:18:35;;;;;;;2.00;1.20;;;;;;;1.55;75.39;101946.70;123522;1102;65277;-78
2021/03/07 03:21:05;;;;;;;4.90;1.60;;;;;;;1.55;75.11;101936.23;123445;1105;66052;-78
2021/03/07 03:23:32;;;;;;;2.43;0.80;;;;;;;1.53;75.29;101945.94;123565;1105;66140;-79
2021/03/07 03:25:59;;;;;;;1.87;1.00;;;;;;;1.53;75.23;101947.69;123478;1105;65059;-77
2021/03/07 03:28:25;;;;;;;2.40;1.50;;;;;;;1.50;75.50;101940.87;123532;1105;65042;-78
2021/03/07 03:30:53;;;;;;;3.83;1.55;;;;;;;1.50;75.55;101940.87;123445;1106;64963;-77
2021/03/07 03:33:24;;;;;;;1.80;1.00;;;;;;;1.48;75.47;101939.27;123620;1105;64914;-78
2021/03/07 03:35:51;;;;;;;3.40;1.43;;;;;;;1.49;75.30;101939.20;123546;1103;64930;-78
2021/03/07 03:38:19;;;;;;;3.47;0.97;;;;;;;1.48;75.59;101940.11;123570;1106;65253;-78
2021/03/07 03:40:48;;;;;;;2.90;0.90;;;;;;;1.46;75.69;101936.73;123447;1105;65082;-77
2021/03/07 03:43:15;;;;;;;4.17;1.90;;;;;;;1.46;75.92;101936.73;123517;1102;64927;-78
2021/03/07 03:45:44;;;;;;;5.20;1.90;;;;;;;1.44;75.69;101938.59;123710;1105;65258;-78
2021/03/07 03:48:19;;;;;;;2.67;1.20;;;;;;;1.45;75.83;101924.60;123478;1103;64936;-80
2021/03/07 03:50:46;;;;;;;3.33;1.23;;;;;;;1.46;75.22;101936.73;123584;1105;64953;-77
2021/03/07 03:53:21;;;;;;;3.00;1.57;;;;;;;1.43;75.25;101919.45;123429;1105;65372;-77
2021/03/07 03:55:53;;;;;;;3.47;1.60;;;;;;;1.45;75.49;101929.83;123817;1106;65479;-78
2021/03/07 03:58:26;;;;;;;7.30;1.37;;;;;;;1.45;75.63;101924.60;123710;1105;64936;-76
2021/03/07 04:00:54;;;;;;;5.93;1.70;;;;;;;1.45;75.50;101919.38;123462;1105;64949;-78
2021/03/07 04:03:23;;;;;;;2.80;1.33;;;;;;;1.45;75.43;101924.60;123507;1105;65038;-79
2021/03/07 04:05:51;;;;;;;3.03;1.37;;;;;;;1.46;75.29;101930.67;123427;1105;64870;-76
2021/03/07 04:08:20;;;;;;;3.13;1.90;;;;;;;1.43;75.12;101929.91;124051;1102;65256;-78
2021/03/07 04:10:49;;;;;;;1.33;0.87;;;;;;;1.42;75.87;101929.98;123492;1103;65009;-77
2021/03/07 04:13:19;;;;;;;1.97;1.17;;;;;;;1.43;75.28;101923.84;123611;1102;65028;-77
2021/03/07 04:15:45;;;;;;;3.40;1.60;;;;;;;1.44;75.51;101922.90;123466;1103;65049;-77
2021/03/07 04:18:20;;;;;;;6.17;1.93;;;;;;;1.41;75.48;101933.55;123676;1102;64928;-78
2021/03/07 04:20:47;;;;;;;10.68;2.00;;;;;;;1.39;75.20;101931.00;123530;1105;64939;-78
2021/03/07 04:23:14;;;;;;;5.83;1.37;;;;;;;1.38;75.55;101931.08;123511;1105;64940;-77
2021/03/07 04:25:40;;;;;;;2.70;1.20;;;;;;;1.38;75.66;101933.70;123440;1105;64989;-75
2021/03/07 04:28:07;;;;;;;3.60;1.60;;;;;;;1.37;75.33;101932.86;123439;1105;65074;-78
2021/03/07 04:30:35;;;;;;;2.80;1.80;;;;;;;1.38;75.20;101934.56;123830;1103;64889;-78
2021/03/07 04:33:03;;;;;;;8.73;1.57;;;;;;;1.37;74.98;101916.34;123443;1105;64812;-76
2021/03/07 04:35:30;;;;;;;3.15;1.15;;;;;;;1.37;75.18;101918.95;124366;1105;64913;-80
2021/03/07 04:38:01;;;;;;;4.27;1.80;;;;;;;1.37;75.50;101921.56;123516;1105;64944;-78
2021/03/07 04:40:28;;;;;;;3.65;1.05;;;;;;;1.36;75.62;101922.48;123617;1105;65065;-78
2021/03/07 04:42:56;;;;;;;2.07;1.10;;;;;;;1.35;75.77;101921.64;123381;1105;64910;-78
2021/03/07 04:45:23;;;;;;;3.80;1.90;;;;;;;1.33;75.83;101909.59;123457;1105;65682;-77
2021/03/07 04:47:49;;;;;;;5.53;1.47;;;;;;;1.31;76.02;101911.45;123404;1105;64933;-76
2021/03/07 04:50:16;;;;;;;1.97;1.23;;;;;;;1.30;76.14;101909.77;123484;1102;64960;-78
2021/03/07 04:52:43;;;;;;;6.10;1.43;;;;;;;1.28;76.23;101901.17;123482;1105;64985;-78
2021/03/07 04:55:11;;;;;;;4.03;1.97;;;;;;;1.27;76.09;101897.69;123524;1102;64867;-78
2021/03/07 04:57:38;;;;;;;5.73;3.10;;;;;;;1.27;75.97;101895.08;123731;1105;64940;-78
2021/03/07 05:00:06;;;;;;;5.17;1.63;;;;;;;1.27;75.71;101889.02;123464;1105;64856;-78
2021/03/07 05:02:32;;;;;;;3.13;1.13;;;;;;;1.25;76.50;101891.70;123854;1102;65647;-76
2021/03/07 05:05:00;;;;;;;5.40;1.70;;;;;;;1.22;76.28;101881.43;123444;1105;65065;-78
2021/03/07 05:07:26;;;;;;;4.40;1.73;;;;;;;1.19;76.77;101886.81;123537;1105;64876;-77
2021/03/07 05:09:52;;;;;;;4.40;2.40;;;;;;;1.17;76.29;101886.92;123719;1105;65042;-78
2021/03/07 05:12:18;;;;;;;4.17;1.90;;;;;;;1.16;76.41;101885.22;123594;1102;64943;-80
2021/03/07 05:15:05;;;;;;;3.33;1.80;;;;;;;1.14;76.37;101886.23;123441;1105;65009;-78
2021/03/07 05:17:31;;;;;;;2.73;1.50;;;;;;;1.11;76.72;101884.64;123445;1105;65075;-76
2021/03/07 05:19:59;;;;;;;2.33;1.10;;;;;;;1.11;76.46;101889.03;123570;1105;64940;-78
2021/03/07 05:22:25;;;;;;;3.10;1.47;;;;;;;1.07;76.42;101888.34;123434;1105;65371;-78
2021/03/07 05:24:52;;;;;;;2.70;1.60;;;;;;;1.07;76.55;101892.73;123466;1103;64931;-78
2021/03/07 05:27:18;;;;;;;7.40;2.03;;;;;;;1.03;76.61;101878.98;123380;1102;64931;-77
2021/03/07 05:29:44;;;;;;;5.23;1.97;;;;;;;1.02;76.84;101877.31;123404;1102;65119;-78
2021/03/07 05:32:10;;;;;;;7.27;2.10;;;;;;;1.02;76.14;101874.70;123544;1102;64955;-76
2021/03/07 05:34:37;;;;;;;3.07;2.10;;;;;;;1.01;76.98;101873.84;123477;1105;65157;-78
2021/03/07 05:37:03;;;;;;;4.73;2.00;;;;;;;0.99;76.66;101875.69;123537;1105;64914;-78
2021/03/07 05:39:30;;;;;;;4.57;2.83;;;;;;;0.94;76.88;101872.50;123454;1102;64918;-78
2021/03/07 05:41:57;;;;;;;3.93;1.80;;;;;;;0.91;76.71;101866.59;123533;1105;64920;-78
2021/03/07 05:44:24;;;;;;;6.93;1.97;;;;;;;0.87;76.85;101863.31;123419;1106;64937;-77
2021/03/07 05:46:51;;;;;;;3.93;2.20;;;;;;;0.85;76.83;101866.91;123585;1105;65851;-80
2021/03/07 05:49:17;;;;;;;3.53;1.63;;;;;;;0.78;76.82;101867.24;123515;1105;64966;-78
2021/03/07 05:51:44;;;;;;;6.10;2.45;;;;;;;0.72;77.30;101862.38;123640;1105;65865;-78
2021/03/07 05:54:11;;;;;;;4.73;2.40;;;;;;;0.68;77.26;101866.08;123539;1105;64914;-78
2021/03/07 05:56:42;;;;;;;7.63;2.20;;;;;;;0.67;76.98;101861.77;123556;1105;65703;-78
2021/03/07 05:59:10;;;;;;;4.60;2.17;;;;;;;0.64;77.92;101864.55;123790;1106;64963;-77
2021/03/07 06:01:36;;;;;;;5.03;1.90;;;;;;;0.61;77.43;101864.70;123578;1105;64896;-78
2021/03/07 06:04:04;;;;;;;4.47;2.15;;;;;;;0.57;77.93;101864.04;123362;1102;64940;-77
2021/03/07 06:06:31;;;;;;;5.47;3.00;;;;;;;0.54;78.02;101869.41;124062;1105;64924;-78
2021/03/07 06:09:17;;;;;;;4.80;2.50;;;;;;;0.55;77.75;101865.89;123404;1102;64998;-76
2021/03/07 06:11:46;;;;;;;4.40;2.53;;;;;;;0.58;77.63;101872.70;123732;1102;64988;-77
2021/03/07 06:14:33;;;;;;;4.27;2.37;;;;;;;0.57;78.31;101873.61;123515;1102;65009;-77
2021/03/07 06:17:15;;;;;;;8.60;2.30;;;;;;;0.59;78.16;101879.60;123492;1105;64982;-77
2021/03/07 06:20:05;;;;;;;6.53;2.63;;;;;;;0.60;78.09;101874.30;123411;1105;65004;-79
2021/03/07 06:22:32;;;;;;;4.63;2.30;;;;;;;0.65;78.09;101876.67;123547;1105;64886;-78
2021/03/07 06:25:02;;;;;;;4.10;2.20;;;;;;;0.67;78.35;101874.82;123426;1105;65045;-77
2021/03/07 06:27:28;;;;;;;4.57;2.17;;;;;;;0.68;79.61;101868.69;123819;1102;64917;-78
2021/03/07 06:29:56;;;;;;;2.50;1.50;;;;;;;0.69;79.24;101872.97;123432;1106;65311;-77
2021/03/07 06:32:24;;;;;;;7.70;2.60;;;;;;;0.70;79.67;101868.58;123340;1105;64943;-78
2021/03/07 06:34:51;;;;;;;6.47;2.10;;;;;;;0.73;79.80;101869.27;123751;1105;65046;-78
2021/03/07 06:37:18;;;;;;;5.07;2.37;;;;;;;0.77;79.47;101865.57;123478;1105;64860;-77
2021/03/07 06:39:47;;;;;;;6.03;2.60;;;;;;;0.80;79.76;101864.55;123647;1105;64923;-77
2021/03/07 06:42:15;;;;;;;5.63;2.63;;;;;;;0.81;79.53;101861.88;123606;1102;64943;-78
2021/03/07 06:45:00;;;;;;;3.77;2.10;;;;;;;0.84;79.75;101865.24;123730;1103;64863;-78
2021/03/07 06:47:28;;;;;;;5.37;2.70;;;;;;;0.86;79.51;101859.00;123450;1105;64885;-77
2021/03/07 06:50:13;;;;;;;6.00;3.23;;;;;;;0.91;79.27;101862.20;123843;1105;64944;-78
2021/03/07 06:52:53;;;;;;;4.47;2.60;;;;;;;0.96;79.08;101868.03;123393;1105;65029;-78
2021/03/07 06:55:22;;;;;;;5.60;2.40;;;;;;;0.98;78.82;101865.34;123613;1102;64860;-78
2021/03/07 06:57:49;;;;;;;6.13;3.23;;;;;;;1.00;78.92;101872.16;123690;1105;65000;-78
2021/03/07 07:00:16;;;;;;;7.93;2.57;;;;;;;1.03;78.63;101865.09;123422;1103;65146;-78
2021/03/07 07:03:07;;;;;;;7.97;2.97;;;;;;;1.08;78.57;101870.89;123488;1105;64937;-78
2021/03/07 07:05:40;;;;;;;4.17;2.43;;;;;;;1.12;78.64;101870.63;123602;1102;65222;-78
2021/03/07 07:08:06;;;;;;;3.77;1.93;;;;;;;1.15;77.97;101865.25;123476;1102;65697;-78
2021/03/07 07:10:51;;;;;;;7.47;2.30;;;;;;;1.17;77.75;101859.92;123542;1104;65005;-78
2021/03/07 07:13:21;;;;;;;4.73;2.13;;;;;;;1.20;77.61;101857.98;123478;1105;64920;-78
2021/03/07 07:16:01;;;;;;;2.90;1.70;;;;;;;1.26;77.07;101853.36;123480;1102;64943;-78
2021/03/07 07:18:30;;;;;;;6.00;2.03;;;;;;;1.30;76.95;101853.09;123683;1106;64968;-81
2021/03/07 07:20:57;;;;;;;6.03;2.73;;;;;;;1.35;76.51;101860.67;123523;1105;65518;-76
2021/03/07 07:23:25;;;;;;;9.10;2.17;;;;;;;1.40;76.51;101866.47;124136;1102;64995;-79
2021/03/07 07:25:52;;;;;;;4.75;2.20;;;;;;;1.40;76.10;101858.63;123589;1102;65000;-79
2021/03/07 07:28:19;;;;;;;3.87;1.73;;;;;;;1.43;75.79;101859.31;123950;1104;64968;-79
2021/03/07 07:31:00;;;;;;;5.93;2.40;;;;;;;1.48;75.13;101855.59;123493;1105;64918;-78
2021/03/07 07:33:52;;;;;;;7.43;2.77;;;;;;;1.50;75.19;101851.95;123514;1105;64989;-78
2021/03/07 07:36:29;;;;;;;4.90;1.97;;;;;;;1.53;74.82;101857.03;123321;1105;64969;-79
2021/03/07 07:38:58;;;;;;;4.77;2.00;;;;;;;1.56;73.69;101848.99;123554;1106;65000;-79
2021/03/07 07:41:29;;;;;;;7.85;1.55;;;;;;;1.58;74.37;101841.91;124051;1102;64863;-78
2021/03/07 07:43:57;;;;;;;4.05;2.10;;;;;;;1.61;73.87;101846.11;123401;1102;64889;-77
2021/03/07 07:46:23;;;;;;;1.47;1.00;;;;;;;1.63;72.79;101834.63;123594;1105;64965;-78
2021/03/07 07:48:49;;;;;;;4.53;1.80;;;;;;;1.64;73.38;101835.48;123612;1105;64995;-78
2021/03/07 07:51:28;;;;;;;8.03;2.13;;;;;;;1.69;73.35;101837.83;123349;1102;64857;-78
2021/03/07 07:53:55;;;;;;;3.13;1.70;;;;;;;1.69;71.47;101843.89;123397;1106;64900;-78
2021/03/07 07:56:41;;;;;;;7.53;2.87;;;;;;;1.73;71.97;101841.95;123513;1103;64928;-79
2021/03/07 07:59:12;;;;;;;4.93;1.80;;;;;;;1.73;70.99;101847.19;123502;1105;63883;-78
2021/03/07 08:01:58;;;;;;;4.65;1.70;;;;;;;1.78;70.77;101843.34;123479;1105;65039;-78
2021/03/07 08:04:28;;;;;;;2.63;1.27;;;;;;;1.83;70.55;101854.41;123414;1105;65295;-78
2021/03/07 08:07:01;;;;;;;2.67;1.43;;;;;;;1.84;69.80;101836.92;123383;1102;65373;-77
2021/03/07 08:09:41;;;;;;;4.13;1.17;;;;;;;1.89;69.46;101845.36;123334;1105;64904;-78
2021/03/07 08:12:44;;;;;;;2.33;1.10;;;;;;;1.95;68.57;101844.98;123463;1108;65783;-79
2021/03/07 08:15:26;;;;;;;2.37;1.33;;;;;;;2.01;68.00;101838.55;123520;1105;64936;-77
2021/03/07 08:17:58;;;;;;;2.20;1.53;;;;;;;2.08;67.97;101829.38;123357;1102;64943;-79
2021/03/07 08:20:44;;;;;;;4.47;1.77;;;;;;;2.14;67.44;101830.80;123581;1106;64876;-78
2021/03/07 08:23:12;;;;;;;3.60;2.20;;;;;;;2.19;66.59;101831.36;123963;1100;64857;-78
2021/03/07 08:25:54;;;;;;;4.05;2.20;;;;;;;2.22;65.52;101831.19;123456;1102;65065;-79
2021/03/07 08:28:27;;;;;;;3.43;1.40;;;;;;;2.29;65.28;101832.48;123539;1103;65048;-77
2021/03/07 08:31:26;;;;;;;4.10;1.50;;;;;;;2.30;63.81;101828.95;123463;1106;65415;-80
2021/03/07 08:33:52;;;;;;;2.37;0.90;;;;;;;2.31;62.71;101828.00;123802;1103;64837;-79
2021/03/07 08:36:26;;;;;;;3.33;1.53;;;;;;;2.35;63.17;101826.87;123514;1102;64960;-79
2021/03/07 08:38:52;;;;;;;4.37;0.90;;;;;;;2.41;62.05;101810.80;123469;1105;65537;-79
2021/03/07 08:41:25;;;;;;;3.75;1.40;;;;;;;2.46;61.06;101813.13;123738;1102;65113;-79
2021/03/07 08:43:53;;;;;;;2.13;1.03;;;;;;;2.52;59.74;101807.52;123364;1106;64860;-78
2021/03/07 08:46:27;;;;;;;2.27;1.30;;;;;;;2.55;59.20;101807.34;123683;1102;65080;-78
2021/03/07 08:49:06;;;;;;;3.70;1.50;;;;;;;2.64;60.21;101800.68;123484;1105;65055;-79
2021/03/07 08:51:36;;;;;;;2.23;1.50;;;;;;;2.70;59.24;101808.16;123871;1105;65223;-81
2021/03/07 08:54:08;;;;;;;4.67;1.87;;;;;;;2.75;59.90;101818.34;123826;1105;65045;-79
2021/03/07 08:56:40;;;;;;;4.60;1.50;;;;;;;2.73;60.30;101802.71;123625;1105;64928;-79
2021/03/07 08:59:08;;;;;;;2.87;1.30;;;;;;;2.70;61.39;101815.16;124034;1105;64973;-81
2021/03/07 09:01:36;;;;;;;1.73;1.10;;;;;;;2.72;61.32;101795.80;124714;1105;65432;-79
2021/03/07 09:04:05;;;;;;;1.83;1.30;;;;;;;2.72;59.82;101801.05;123634;1102;65318;-79
2021/03/07 09:06:43;;;;;;;1.50;1.10;;;;;;;2.75;61.88;101797.39;124038;1105;65061;-80
2021/03/07 09:09:19;;;;;;;2.53;1.30;;;;;;;2.77;61.26;101787.65;123945;1105;64991;-79
2021/03/07 09:11:50;;;;;;;4.40;1.90;;;;;;;2.80;61.37;101785.66;123644;1105;65729;-79
2021/03/07 09:14:18;;;;;;;4.10;1.55;;;;;;;2.89;61.19;101780.77;123596;1105;64912;-79
2021/03/07 09:16:48;;;;;;;4.27;1.63;;;;;;;2.90;61.28;101777.22;123647;1102;64860;-79
2021/03/07 09:19:30;;;;;;;1.80;1.13;;;;;;;2.87;60.06;101775.65;123575;1105;65135;-78
2021/03/07 09:22:23;;;;;;;3.80;1.50;;;;;;;2.94;60.05;101770.84;123975;1105;65020;-80
2021/03/07 09:25:05;;;;;;;2.10;1.10;;;;;;;3.00;59.91;101763.42;123598;1105;64965;-78
2021/03/07 09:27:34;;;;;;;4.30;1.60;;;;;;;3.08;60.39;101769.94;123580;1105;64952;-81
2021/03/07 09:30:07;;;;;;;3.70;1.93;;;;;;;3.07;58.56;101763.86;123636;1105;65298;-81
2021/03/07 09:32:37;;;;;;;3.93;1.40;;;;;;;3.08;59.78;101765.53;123788;1104;66207;-79
2021/03/07 09:35:31;;;;;;;2.10;1.47;;;;;;;3.12;59.22;101768.80;124046;1105;64722;-78
2021/03/07 09:38:06;;;;;;;2.45;1.20;;;;;;;3.09;59.03;101764.61;123713;1105;65021;-79
2021/03/07 09:40:34;;;;;;;;;;;;;;;3.11;59.58;101769.76;123447;1105;64989;-78
2021/03/07 09:43:06;;;;;;;2.63;1.20;;;;;;;3.14;59.18;101761.68;123447;1105;65456;-79
2021/03/07 09:45:34;;;;;;;2.00;1.40;;;;;;;3.21;59.36;101753.32;123945;1102;65081;-79
2021/03/07 09:48:15;;;;;;;1.93;1.20;;;;;;;3.24;59.08;101760.97;123551;1105;64899;-78
2021/03/07 09:50:43;;;;;;;1.50;1.10;;;;;;;3.28;59.11;101752.92;124202;1105;64923;-78
2021/03/07 09:53:10;;;;;;;2.90;1.40;;;;;;;3.31;58.86;101761.41;123413;1105;65532;-78
2021/03/07 09:55:36;;;;;;;3.30;1.33;;;;;;;3.31;58.62;101756.16;123464;1103;64911;-79
2021/03/07 09:58:08;;;;;;;2.83;1.40;;;;;;;3.30;58.18;101751.87;123450;1105;65047;-78
2021/03/07 10:00:40;;;;;;;5.63;1.60;;;;;;;3.35;58.76;101748.94;123274;1105;64931;-78
2021/03/07 10:03:24;;;;;;;8.90;2.93;;;;;;;3.39;59.33;101755.66;123477;1105;64947;-78
2021/03/07 10:06:17;;;;;;;4.65;2.10;;;;;;;3.38;58.49;101753.96;123415;1105;64805;-78
2021/03/07 10:08:45;;;;;;;2.23;1.27;;;;;;;3.41;58.76;101748.53;123634;1103;64904;-80
2021/03/07 10:11:11;;;;;;;2.20;1.13;;;;;;;3.42;58.74;101751.06;124490;1102;65056;-80
2021/03/07 10:13:39;;;;;;;1.75;0.98;;;;;;;3.46;58.87;101749.05;124269;1105;65131;-80
2021/03/07 10:16:07;;;;;;;1.30;0.97;;;;;;;3.41;57.83;101751.98;123977;1105;65314;-78
2021/03/07 10:18:37;;;;;;;1.87;1.20;;;;;;;3.54;59.33;101748.55;123769;1105;64911;-79
2021/03/07 10:21:06;;;;;;;3.43;1.27;;;;;;;3.52;56.98;101753.89;123574;1106;66482;-79
2021/03/07 10:23:34;;;;;;;4.45;1.35;;;;;;;3.53;56.30;101745.09;124011;1105;64940;-79
2021/03/07 10:26:05;;;;;;;2.60;1.20;;;;;;;3.51;56.82;101754.84;123545;1102;64873;-78
2021/03/07 10:28:35;;;;;;;4.87;1.90;;;;;;;3.50;55.78;101749.70;123686;1106;64998;-79
2021/03/07 10:31:12;;;;;;;3.60;2.00;;;;;;;3.57;57.62;101738.70;123664;1105;64860;-79
2021/03/07 10:33:40;;;;;;;2.10;1.30;;;;;;;3.60;57.66;101727.98;124231;1105;64931;-79
2021/03/07 10:36:19;;;;;;;2.23;1.37;;;;;;;3.61;57.67;101727.05;123657;1103;65068;-79
2021/03/07 10:38:48;;;;;;;1.80;1.00;;;;;;;3.65;57.53;101725.88;123582;1105;65097;-77
2021/03/07 10:41:31;;;;;;;2.33;1.37;;;;;;;3.63;56.92;101727.79;123461;1106;64907;-79
2021/03/07 10:44:05;;;;;;;2.07;1.07;;;;;;;3.63;55.96;101737.42;123506;1105;65735;-78
2021/03/07 10:46:33;;;;;;;2.10;1.33;;;;;;;3.57;55.70;101748.33;123498;1103;64934;-78
2021/03/07 10:49:19;;;;;;;2.45;1.75;;;;;;;3.58;57.19;101734.28;123630;1105;65906;-79
2021/03/07 10:51:46;;;;;;;5.83;1.80;;;;;;;3.57;57.68;101730.83;123454;1106;64934;-79
2021/03/07 10:54:12;;;;;;;3.10;1.90;;;;;;;3.57;57.46;101733.45;123374;1103;64857;-78
2021/03/07 10:56:40;;;;;;;4.12;2.25;;;;;;;3.58;57.57;101747.41;123374;1105;64978;-80
2021/03/07 10:59:09;;;;;;;3.60;1.50;;;;;;;3.57;58.02;101741.32;123799;1102;65515;-79
2021/03/07 11:01:36;;;;;;;7.13;2.40;;;;;;;3.56;58.25;101737.00;123591;1103;65920;-79
2021/03/07 11:04:02;;;;;;;3.43;1.30;;;;;;;3.52;58.11;101735.53;123603;1106;64988;-79
2021/03/07 11:06:29;;;;;;;3.50;1.53;;;;;;;3.50;57.68;101732.16;123711;1102;64927;-78
2021/03/07 11:08:55;;;;;;;3.83;1.67;;;;;;;3.47;57.73;101730.59;123368;1105;65414;-78
2021/03/07 11:11:21;;;;;;;5.87;1.57;;;;;;;3.46;58.56;101723.69;123352;1105;64933;-79
2021/03/07 11:13:47;;;;;;;2.43;1.43;;;;;;;3.51;58.51;101718.13;123710;1103;64985;-81
2021/03/07 11:16:13;;;;;;;4.65;1.90;;;;;;;3.50;58.82;101724.30;123545;1103;65239;-78
2021/03/07 11:18:40;;;;;;;3.33;1.50;;;;;;;3.47;58.46;101714.86;123782;1103;64883;-78
2021/03/07 11:21:07;;;;;;;3.15;1.60;;;;;;;3.46;59.05;101730.69;123382;1105;65964;-78
2021/03/07 11:23:34;;;;;;;3.83;1.23;;;;;;;3.43;59.37;101716.00;123449;1105;65017;-78
2021/03/07 11:26:03;;;;;;;5.00;1.77;;;;;;;3.42;59.08;101708.23;123669;1105;65020;-79
2021/03/07 11:28:30;;;;;;;2.37;1.40;;;;;;;3.45;58.74;101708.04;123404;1105;64969;-78
2021/03/07 11:30:56;;;;;;;4.07;1.90;;;;;;;3.44;58.81;101711.59;123623;1102;64990;-80
2021/03/07 11:33:23;;;;;;;3.57;1.50;;;;;;;3.38;58.06;101707.62;123567;1105;64969;-79
2021/03/07 11:35:51;;;;;;;3.20;1.60;;;;;;;3.37;59.20;101710.33;123388;1103;64943;-79
2021/03/07 11:38:19;;;;;;;3.30;1.13;;;;;;;3.38;58.06;101706.75;123566;1105;64981;-80
2021/03/07 11:40:45;;;;;;;3.33;1.57;;;;;;;3.39;58.69;101698.80;123504;1105;65033;-79